sensor_id;sensor_type;location;lat;lon;timestamp;P1;durP1;ratioP1;P2;durP2;ratioP2
3700;SDS011;1866;48.374;10.766;2022-08-01T00:01:51;96.17;;;5.30;;
3700;SDS011;1866;48.374;10.766;2022-08-01T00:04:18;98.70;;;5.10;;
3700;SDS011;1866;48.374;10.766;2022-08-01T00:06:47;97.57;;;5.30;;
3700;SDS011;1866;48.374;10.766;2022-08-01T00:09:14;96.20;;;5.03;;
3700;SDS011;1866;48.374;10.766;2022-08-01T00:11:44;97.70;;;5.60;;
3700;SDS011;1866;48.374;10.766;2022-08-01T00:14:23;97.17;;;6.30;;
3700;SDS011;1866;48.374;10.766;2022-08-01T00:16:50;95.77;;;5.07;;
3700;SDS011;1866;48.374;10.766;2022-08-01T00:19:16;97.37;;;5.30;;
3700;SDS011;1866;48.374;10.766;2022-08-01T00:21:43;96.77;;;5.10;;
3700;SDS011;1866;48.374;10.766;2022-08-01T00:24:13;95.70;;;5.03;;
3700;SDS011;1866;48.374;10.766;2022-08-01T00:26:45;96.73;;;5.70;;
3700;SDS011;1866;48.374;10.766;2022-08-01T00:29:14;95.57;;;5.10;;
3700;SDS011;1866;48.374;10.766;2022-08-01T00:31:44;95.57;;;4.90;;
3700;SDS011;1866;48.374;10.766;2022-08-01T00:34:11;96.10;;;5.00;;
3700;SDS011;1866;48.374;10.766;2022-08-01T00:36:37;95.97;;;5.27;;
3700;SDS011;1866;48.374;10.766;2022-08-01T00:39:12;97.67;;;5.57;;
3700;SDS011;1866;48.374;10.766;2022-08-01T00:41:43;95.87;;;4.77;;
3700;SDS011;1866;48.374;10.766;2022-08-01T00:44:10;96.10;;;4.83;;
3700;SDS011;1866;48.374;10.766;2022-08-01T00:46:38;96.70;;;4.77;;
3700;SDS011;1866;48.374;10.766;2022-08-01T00:49:05;95.87;;;4.80;;
3700;SDS011;1866;48.374;10.766;2022-08-01T00:51:32;95.77;;;4.80;;
3700;SDS011;1866;48.374;10.766;2022-08-01T00:53:59;110.27;;;5.07;;
3700;SDS011;1866;48.374;10.766;2022-08-01T00:56:28;95.93;;;4.90;;
3700;SDS011;1866;48.374;10.766;2022-08-01T00:58:56;96.03;;;4.80;;
3700;SDS011;1866;48.374;10.766;2022-08-01T01:01:24;96.87;;;5.20;;
3700;SDS011;1866;48.374;10.766;2022-08-01T01:03:51;98.27;;;5.80;;
3700;SDS011;1866;48.374;10.766;2022-08-01T01:06:23;97.13;;;5.20;;
3700;SDS011;1866;48.374;10.766;2022-08-01T01:08:57;99.37;;;5.80;;
3700;SDS011;1866;48.374;10.766;2022-08-01T01:11:47;97.30;;;5.23;;
3700;SDS011;1866;48.374;10.766;2022-08-01T01:14:23;99.40;;;5.43;;
3700;SDS011;1866;48.374;10.766;2022-08-01T01:16:57;139.17;;;5.87;;
3700;SDS011;1866;48.374;10.766;2022-08-01T01:22:18;97.17;;;5.50;;
3700;SDS011;1866;48.374;10.766;2022-08-01T01:24:58;97.57;;;5.33;;
3700;SDS011;1866;48.374;10.766;2022-08-01T01:27:41;96.70;;;5.10;;
3700;SDS011;1866;48.374;10.766;2022-08-01T01:30:15;103.43;;;6.20;;
3700;SDS011;1866;48.374;10.766;2022-08-01T01:32:43;97.73;;;5.73;;
3700;SDS011;1866;48.374;10.766;2022-08-01T01:35:14;97.67;;;5.10;;
3700;SDS011;1866;48.374;10.766;2022-08-01T01:37:44;99.13;;;5.83;;
3700;SDS011;1866;48.374;10.766;2022-08-01T01:40:14;98.00;;;5.83;;
3700;SDS011;1866;48.374;10.766;2022-08-01T01:42:43;97.07;;;5.30;;
3700;SDS011;1866;48.374;10.766;2022-08-01T01:45:11;97.03;;;5.37;;
3700;SDS011;1866;48.374;10.766;2022-08-01T01:47:40;98.00;;;5.43;;
3700;SDS011;1866;48.374;10.766;2022-08-01T01:50:08;96.67;;;5.40;;
3700;SDS011;1866;48.374;10.766;2022-08-01T01:52:39;96.70;;;5.57;;
3700;SDS011;1866;48.374;10.766;2022-08-01T01:55:08;97.47;;;5.30;;
3700;SDS011;1866;48.374;10.766;2022-08-01T01:57:37;97.67;;;5.27;;
3700;SDS011;1866;48.374;10.766;2022-08-01T02:00:07;96.37;;;5.10;;
3700;SDS011;1866;48.374;10.766;2022-08-01T02:02:36;98.40;;;5.43;;
3700;SDS011;1866;48.374;10.766;2022-08-01T02:05:09;100.33;;;5.73;;
3700;SDS011;1866;48.374;10.766;2022-08-01T02:07:39;96.90;;;5.03;;
3700;SDS011;1866;48.374;10.766;2022-08-01T02:10:07;97.33;;;5.33;;
3700;SDS011;1866;48.374;10.766;2022-08-01T02:12:37;101.97;;;5.73;;
3700;SDS011;1866;48.374;10.766;2022-08-01T02:15:07;103.07;;;5.70;;
3700;SDS011;1866;48.374;10.766;2022-08-01T02:17:37;98.17;;;5.30;;
3700;SDS011;1866;48.374;10.766;2022-08-01T02:20:12;96.57;;;5.03;;
3700;SDS011;1866;48.374;10.766;2022-08-01T02:22:55;99.57;;;5.40;;
3700;SDS011;1866;48.374;10.766;2022-08-01T02:25:29;98.57;;;5.60;;
3700;SDS011;1866;48.374;10.766;2022-08-01T02:28:01;101.30;;;5.90;;
3700;SDS011;1866;48.374;10.766;2022-08-01T02:30:32;97.87;;;5.53;;
3700;SDS011;1866;48.374;10.766;2022-08-01T02:33:02;96.67;;;5.20;;
3700;SDS011;1866;48.374;10.766;2022-08-01T02:35:33;97.00;;;5.77;;
3700;SDS011;1866;48.374;10.766;2022-08-01T02:38:03;97.57;;;5.60;;
3700;SDS011;1866;48.374;10.766;2022-08-01T02:40:32;97.27;;;5.40;;
3700;SDS011;1866;48.374;10.766;2022-08-01T02:43:02;99.70;;;6.87;;
3700;SDS011;1866;48.374;10.766;2022-08-01T02:45:31;97.70;;;5.13;;
3700;SDS011;1866;48.374;10.766;2022-08-01T02:48:02;97.60;;;5.77;;
3700;SDS011;1866;48.374;10.766;2022-08-01T02:50:35;96.87;;;5.30;;
3700;SDS011;1866;48.374;10.766;2022-08-01T02:53:03;97.37;;;5.50;;
3700;SDS011;1866;48.374;10.766;2022-08-01T02:55:33;97.07;;;5.50;;
3700;SDS011;1866;48.374;10.766;2022-08-01T02:58:01;101.20;;;5.20;;
3700;SDS011;1866;48.374;10.766;2022-08-01T03:00:30;97.13;;;5.20;;
3700;SDS011;1866;48.374;10.766;2022-08-01T03:02:57;97.60;;;5.30;;
3700;SDS011;1866;48.374;10.766;2022-08-01T03:05:25;98.37;;;5.27;;
3700;SDS011;1866;48.374;10.766;2022-08-01T03:07:55;96.80;;;5.17;;
3700;SDS011;1866;48.374;10.766;2022-08-01T03:10:25;97.07;;;5.40;;
3700;SDS011;1866;48.374;10.766;2022-08-01T03:12:57;97.90;;;5.20;;
3700;SDS011;1866;48.374;10.766;2022-08-01T03:15:26;99.70;;;5.63;;
3700;SDS011;1866;48.374;10.766;2022-08-01T03:17:57;97.47;;;5.47;;
3700;SDS011;1866;48.374;10.766;2022-08-01T03:20:28;96.57;;;5.20;;
3700;SDS011;1866;48.374;10.766;2022-08-01T03:22:59;97.77;;;5.40;;
3700;SDS011;1866;48.374;10.766;2022-08-01T03:25:30;97.43;;;4.83;;
3700;SDS011;1866;48.374;10.766;2022-08-01T03:27:59;101.13;;;5.57;;
3700;SDS011;1866;48.374;10.766;2022-08-01T03:30:29;97.47;;;5.20;;
3700;SDS011;1866;48.374;10.766;2022-08-01T03:32:57;99.97;;;5.50;;
3700;SDS011;1866;48.374;10.766;2022-08-01T03:35:25;97.17;;;5.13;;
3700;SDS011;1866;48.374;10.766;2022-08-01T03:38:01;99.33;;;5.50;;
3700;SDS011;1866;48.374;10.766;2022-08-01T03:40:31;97.53;;;5.60;;
3700;SDS011;1866;48.374;10.766;2022-08-01T03:43:04;99.67;;;5.10;;
3700;SDS011;1866;48.374;10.766;2022-08-01T03:45:34;97.73;;;5.10;;
3700;SDS011;1866;48.374;10.766;2022-08-01T03:48:05;99.37;;;5.03;;
3700;SDS011;1866;48.374;10.766;2022-08-01T03:50:37;113.90;;;6.03;;
3700;SDS011;1866;48.374;10.766;2022-08-01T03:53:10;98.37;;;5.33;;
3700;SDS011;1866;48.374;10.766;2022-08-01T03:55:37;97.17;;;5.40;;
3700;SDS011;1866;48.374;10.766;2022-08-01T03:58:08;97.27;;;5.40;;
3700;SDS011;1866;48.374;10.766;2022-08-01T04:00:37;97.97;;;5.30;;
3700;SDS011;1866;48.374;10.766;2022-08-01T04:03:08;98.17;;;5.63;;
3700;SDS011;1866;48.374;10.766;2022-08-01T04:05:36;97.10;;;5.27;;
3700;SDS011;1866;48.374;10.766;2022-08-01T04:08:03;97.83;;;6.03;;
3700;SDS011;1866;48.374;10.766;2022-08-01T04:10:32;97.33;;;5.10;;
3700;SDS011;1866;48.374;10.766;2022-08-01T04:12:59;97.10;;;4.90;;
3700;SDS011;1866;48.374;10.766;2022-08-01T04:15:26;97.87;;;5.50;;
3700;SDS011;1866;48.374;10.766;2022-08-01T04:17:53;97.97;;;5.17;;
3700;SDS011;1866;48.374;10.766;2022-08-01T04:20:20;97.17;;;5.23;;
3700;SDS011;1866;48.374;10.766;2022-08-01T04:22:49;98.97;;;5.10;;
3700;SDS011;1866;48.374;10.766;2022-08-01T04:25:17;98.63;;;5.20;;
3700;SDS011;1866;48.374;10.766;2022-08-01T04:27:49;97.27;;;5.57;;
3700;SDS011;1866;48.374;10.766;2022-08-01T04:30:19;96.87;;;5.10;;
3700;SDS011;1866;48.374;10.766;2022-08-01T04:32:49;103.40;;;5.90;;
3700;SDS011;1866;48.374;10.766;2022-08-01T04:35:19;97.20;;;5.43;;
3700;SDS011;1866;48.374;10.766;2022-08-01T04:37:47;96.90;;;4.87;;
3700;SDS011;1866;48.374;10.766;2022-08-01T04:40:16;97.30;;;4.97;;
3700;SDS011;1866;48.374;10.766;2022-08-01T04:42:47;99.80;;;6.40;;
3700;SDS011;1866;48.374;10.766;2022-08-01T04:45:16;98.07;;;5.53;;
3700;SDS011;1866;48.374;10.766;2022-08-01T04:47:47;96.30;;;4.97;;
3700;SDS011;1866;48.374;10.766;2022-08-01T04:50:14;95.10;;;4.93;;
3700;SDS011;1866;48.374;10.766;2022-08-01T04:52:42;95.90;;;4.93;;
3700;SDS011;1866;48.374;10.766;2022-08-01T04:55:09;95.57;;;5.00;;
3700;SDS011;1866;48.374;10.766;2022-08-01T04:57:36;100.17;;;4.93;;
3700;SDS011;1866;48.374;10.766;2022-08-01T05:00:07;94.90;;;4.70;;
3700;SDS011;1866;48.374;10.766;2022-08-01T05:02:35;107.53;;;5.03;;
3700;SDS011;1866;48.374;10.766;2022-08-01T05:05:03;114.53;;;5.10;;
3700;SDS011;1866;48.374;10.766;2022-08-01T05:07:32;94.47;;;4.80;;
3700;SDS011;1866;48.374;10.766;2022-08-01T05:10:05;94.43;;;4.77;;
3700;SDS011;1866;48.374;10.766;2022-08-01T05:12:33;95.00;;;5.10;;
3700;SDS011;1866;48.374;10.766;2022-08-01T05:15:02;95.37;;;4.97;;
3700;SDS011;1866;48.374;10.766;2022-08-01T05:17:32;95.83;;;4.63;;
3700;SDS011;1866;48.374;10.766;2022-08-01T05:19:59;97.07;;;4.80;;
3700;SDS011;1866;48.374;10.766;2022-08-01T05:22:27;95.07;;;5.10;;
3700;SDS011;1866;48.374;10.766;2022-08-01T05:24:54;94.77;;;4.77;;
3700;SDS011;1866;48.374;10.766;2022-08-01T05:27:21;95.87;;;4.80;;
3700;SDS011;1866;48.374;10.766;2022-08-01T05:29:48;97.27;;;5.30;;
3700;SDS011;1866;48.374;10.766;2022-08-01T05:32:15;95.40;;;4.80;;
3700;SDS011;1866;48.374;10.766;2022-08-01T05:34:44;113.63;;;4.87;;
3700;SDS011;1866;48.374;10.766;2022-08-01T05:37:10;94.97;;;4.97;;
3700;SDS011;1866;48.374;10.766;2022-08-01T05:39:37;95.50;;;5.03;;
3700;SDS011;1866;48.374;10.766;2022-08-01T05:42:04;97.80;;;5.00;;
3700;SDS011;1866;48.374;10.766;2022-08-01T05:44:31;95.17;;;5.00;;
3700;SDS011;1866;48.374;10.766;2022-08-01T05:46:58;94.87;;;4.87;;
3700;SDS011;1866;48.374;10.766;2022-08-01T05:49:25;95.00;;;4.80;;
3700;SDS011;1866;48.374;10.766;2022-08-01T05:51:56;94.47;;;4.77;;
3700;SDS011;1866;48.374;10.766;2022-08-01T05:54:23;97.50;;;5.30;;
3700;SDS011;1866;48.374;10.766;2022-08-01T05:56:50;94.77;;;5.10;;
3700;SDS011;1866;48.374;10.766;2022-08-01T05:59:24;95.07;;;4.40;;
3700;SDS011;1866;48.374;10.766;2022-08-01T06:02:01;94.77;;;4.80;;
3700;SDS011;1866;48.374;10.766;2022-08-01T06:04:27;99.27;;;5.00;;
3700;SDS011;1866;48.374;10.766;2022-08-01T06:06:57;98.10;;;5.93;;
3700;SDS011;1866;48.374;10.766;2022-08-01T06:09:26;96.50;;;4.70;;
3700;SDS011;1866;48.374;10.766;2022-08-01T06:14:26;95.50;;;5.27;;
3700;SDS011;1866;48.374;10.766;2022-08-01T06:16:58;94.53;;;4.57;;
3700;SDS011;1866;48.374;10.766;2022-08-01T06:19:25;96.27;;;5.20;;
3700;SDS011;1866;48.374;10.766;2022-08-01T06:21:53;94.90;;;4.60;;
3700;SDS011;1866;48.374;10.766;2022-08-01T06:24:24;94.07;;;4.70;;
3700;SDS011;1866;48.374;10.766;2022-08-01T06:26:51;94.20;;;4.57;;
3700;SDS011;1866;48.374;10.766;2022-08-01T06:29:22;94.97;;;4.40;;
3700;SDS011;1866;48.374;10.766;2022-08-01T06:31:51;94.10;;;4.70;;
3700;SDS011;1866;48.374;10.766;2022-08-01T06:34:25;93.77;;;4.30;;
3700;SDS011;1866;48.374;10.766;2022-08-01T06:36:52;94.27;;;4.73;;
3700;SDS011;1866;48.374;10.766;2022-08-01T06:39:19;95.10;;;4.80;;
3700;SDS011;1866;48.374;10.766;2022-08-01T06:41:48;95.47;;;4.80;;
3700;SDS011;1866;48.374;10.766;2022-08-01T06:44:15;94.07;;;4.60;;
3700;SDS011;1866;48.374;10.766;2022-08-01T06:46:42;94.77;;;4.67;;
3700;SDS011;1866;48.374;10.766;2022-08-01T06:49:09;93.67;;;4.33;;
3700;SDS011;1866;48.374;10.766;2022-08-01T06:51:36;94.30;;;4.70;;
3700;SDS011;1866;48.374;10.766;2022-08-01T06:54:03;95.90;;;5.30;;
3700;SDS011;1866;48.374;10.766;2022-08-01T06:56:30;94.93;;;4.67;;
3700;SDS011;1866;48.374;10.766;2022-08-01T06:59:01;94.57;;;4.90;;
3700;SDS011;1866;48.374;10.766;2022-08-01T07:01:28;94.30;;;4.57;;
3700;SDS011;1866;48.374;10.766;2022-08-01T07:03:56;95.17;;;4.43;;
3700;SDS011;1866;48.374;10.766;2022-08-01T07:06:23;95.30;;;4.50;;
3700;SDS011;1866;48.374;10.766;2022-08-01T07:08:51;95.07;;;4.33;;
3700;SDS011;1866;48.374;10.766;2022-08-01T07:11:18;96.47;;;4.93;;
3700;SDS011;1866;48.374;10.766;2022-08-01T07:13:45;96.50;;;4.80;;
3700;SDS011;1866;48.374;10.766;2022-08-01T07:16:14;95.57;;;4.73;;
3700;SDS011;1866;48.374;10.766;2022-08-01T07:18:43;94.90;;;4.43;;
3700;SDS011;1866;48.374;10.766;2022-08-01T07:21:11;94.10;;;4.40;;
3700;SDS011;1866;48.374;10.766;2022-08-01T07:23:38;95.90;;;4.60;;
3700;SDS011;1866;48.374;10.766;2022-08-01T07:26:05;95.40;;;4.67;;
3700;SDS011;1866;48.374;10.766;2022-08-01T07:28:34;93.93;;;4.10;;
3700;SDS011;1866;48.374;10.766;2022-08-01T07:31:06;95.07;;;4.90;;
3700;SDS011;1866;48.374;10.766;2022-08-01T07:33:35;93.70;;;4.30;;
3700;SDS011;1866;48.374;10.766;2022-08-01T07:36:02;93.97;;;4.43;;
3700;SDS011;1866;48.374;10.766;2022-08-01T07:38:30;93.37;;;4.27;;
3700;SDS011;1866;48.374;10.766;2022-08-01T07:40:57;93.97;;;4.53;;
3700;SDS011;1866;48.374;10.766;2022-08-01T07:46:15;94.07;;;4.20;;
3700;SDS011;1866;48.374;10.766;2022-08-01T07:48:44;92.87;;;3.90;;
3700;SDS011;1866;48.374;10.766;2022-08-01T07:51:10;92.70;;;3.53;;
3700;SDS011;1866;48.374;10.766;2022-08-01T07:53:38;94.80;;;4.60;;
3700;SDS011;1866;48.374;10.766;2022-08-01T07:56:04;92.47;;;3.60;;
3700;SDS011;1866;48.374;10.766;2022-08-01T07:58:31;94.17;;;4.00;;
3700;SDS011;1866;48.374;10.766;2022-08-01T08:00:58;93.27;;;4.40;;
3700;SDS011;1866;48.374;10.766;2022-08-01T08:03:25;92.97;;;4.10;;
3700;SDS011;1866;48.374;10.766;2022-08-01T08:05:54;95.27;;;4.70;;
3700;SDS011;1866;48.374;10.766;2022-08-01T08:08:21;92.97;;;4.00;;
3700;SDS011;1866;48.374;10.766;2022-08-01T08:10:49;93.97;;;4.27;;
3700;SDS011;1866;48.374;10.766;2022-08-01T08:13:16;92.90;;;3.93;;
3700;SDS011;1866;48.374;10.766;2022-08-01T08:15:42;95.80;;;4.67;;
3700;SDS011;1866;48.374;10.766;2022-08-01T08:18:09;92.67;;;3.90;;
3700;SDS011;1866;48.374;10.766;2022-08-01T08:20:36;95.43;;;4.47;;
3700;SDS011;1866;48.374;10.766;2022-08-01T08:23:04;92.87;;;3.80;;
3700;SDS011;1866;48.374;10.766;2022-08-01T08:25:51;92.57;;;3.90;;
3700;SDS011;1866;48.374;10.766;2022-08-01T08:28:18;92.47;;;4.00;;
3700;SDS011;1866;48.374;10.766;2022-08-01T08:30:45;93.10;;;4.10;;
3700;SDS011;1866;48.374;10.766;2022-08-01T08:33:12;93.30;;;4.20;;
3700;SDS011;1866;48.374;10.766;2022-08-01T08:35:39;92.43;;;3.90;;
3700;SDS011;1866;48.374;10.766;2022-08-01T08:38:07;92.27;;;3.93;;
3700;SDS011;1866;48.374;10.766;2022-08-01T08:40:35;94.07;;;4.00;;
3700;SDS011;1866;48.374;10.766;2022-08-01T08:43:04;92.47;;;3.70;;
3700;SDS011;1866;48.374;10.766;2022-08-01T08:45:31;91.90;;;3.77;;
3700;SDS011;1866;48.374;10.766;2022-08-01T08:47:58;93.67;;;3.93;;
3700;SDS011;1866;48.374;10.766;2022-08-01T08:50:27;92.87;;;3.50;;
3700;SDS011;1866;48.374;10.766;2022-08-01T08:52:54;91.60;;;3.40;;
3700;SDS011;1866;48.374;10.766;2022-08-01T08:55:23;91.40;;;3.50;;
3700;SDS011;1866;48.374;10.766;2022-08-01T08:57:52;91.73;;;3.30;;
3700;SDS011;1866;48.374;10.766;2022-08-01T09:00:20;91.97;;;3.73;;
3700;SDS011;1866;48.374;10.766;2022-08-01T09:02:47;91.80;;;3.50;;
3700;SDS011;1866;48.374;10.766;2022-08-01T09:05:15;92.83;;;3.70;;
3700;SDS011;1866;48.374;10.766;2022-08-01T09:07:43;92.23;;;3.90;;
3700;SDS011;1866;48.374;10.766;2022-08-01T09:10:10;93.20;;;4.13;;
3700;SDS011;1866;48.374;10.766;2022-08-01T09:12:38;93.27;;;3.60;;
3700;SDS011;1866;48.374;10.766;2022-08-01T09:15:07;92.37;;;3.60;;
3700;SDS011;1866;48.374;10.766;2022-08-01T09:17:40;92.33;;;3.80;;
3700;SDS011;1866;48.374;10.766;2022-08-01T09:20:08;92.20;;;3.60;;
3700;SDS011;1866;48.374;10.766;2022-08-01T09:22:49;92.07;;;3.70;;
3700;SDS011;1866;48.374;10.766;2022-08-01T09:25:16;91.97;;;3.60;;
3700;SDS011;1866;48.374;10.766;2022-08-01T09:27:45;92.37;;;3.80;;
3700;SDS011;1866;48.374;10.766;2022-08-01T09:30:13;92.67;;;3.80;;
3700;SDS011;1866;48.374;10.766;2022-08-01T09:32:52;95.20;;;4.03;;
3700;SDS011;1866;48.374;10.766;2022-08-01T09:35:24;92.20;;;3.70;;
3700;SDS011;1866;48.374;10.766;2022-08-01T09:37:54;91.97;;;3.40;;
3700;SDS011;1866;48.374;10.766;2022-08-01T09:40:47;95.03;;;3.80;;
3700;SDS011;1866;48.374;10.766;2022-08-01T09:43:18;91.80;;;3.50;;
3700;SDS011;1866;48.374;10.766;2022-08-01T09:45:46;92.57;;;3.70;;
3700;SDS011;1866;48.374;10.766;2022-08-01T09:48:13;93.10;;;4.20;;
3700;SDS011;1866;48.374;10.766;2022-08-01T09:50:41;92.37;;;3.90;;
3700;SDS011;1866;48.374;10.766;2022-08-01T09:53:09;93.27;;;3.50;;
3700;SDS011;1866;48.374;10.766;2022-08-01T09:55:36;91.30;;;3.60;;
3700;SDS011;1866;48.374;10.766;2022-08-01T09:58:03;91.70;;;3.77;;
3700;SDS011;1866;48.374;10.766;2022-08-01T10:00:33;91.40;;;3.40;;
3700;SDS011;1866;48.374;10.766;2022-08-01T10:03:04;92.13;;;3.30;;
3700;SDS011;1866;48.374;10.766;2022-08-01T10:05:46;91.90;;;3.20;;
3700;SDS011;1866;48.374;10.766;2022-08-01T10:08:13;92.50;;;3.50;;
3700;SDS011;1866;48.374;10.766;2022-08-01T10:10:41;91.97;;;3.63;;
3700;SDS011;1866;48.374;10.766;2022-08-01T10:13:29;93.83;;;3.67;;
3700;SDS011;1866;48.374;10.766;2022-08-01T10:15:57;91.63;;;3.20;;
3700;SDS011;1866;48.374;10.766;2022-08-01T10:18:26;91.97;;;3.30;;
3700;SDS011;1866;48.374;10.766;2022-08-01T10:20:56;92.87;;;3.60;;
3700;SDS011;1866;48.374;10.766;2022-08-01T10:23:23;91.90;;;3.30;;
3700;SDS011;1866;48.374;10.766;2022-08-01T10:25:52;91.27;;;3.20;;
3700;SDS011;1866;48.374;10.766;2022-08-01T10:28:21;92.03;;;3.30;;
3700;SDS011;1866;48.374;10.766;2022-08-01T10:30:49;91.57;;;3.30;;
3700;SDS011;1866;48.374;10.766;2022-08-01T10:33:17;91.93;;;3.47;;
3700;SDS011;1866;48.374;10.766;2022-08-01T10:35:47;91.43;;;3.23;;
3700;SDS011;1866;48.374;10.766;2022-08-01T10:38:14;91.40;;;3.13;;
3700;SDS011;1866;48.374;10.766;2022-08-01T10:40:42;93.53;;;3.67;;
3700;SDS011;1866;48.374;10.766;2022-08-01T10:43:09;90.97;;;3.20;;
3700;SDS011;1866;48.374;10.766;2022-08-01T10:45:36;91.27;;;3.30;;
3700;SDS011;1866;48.374;10.766;2022-08-01T10:48:06;90.57;;;3.10;;
3700;SDS011;1866;48.374;10.766;2022-08-01T10:50:42;90.77;;;3.30;;
3700;SDS011;1866;48.374;10.766;2022-08-01T10:53:13;92.63;;;3.53;;
3700;SDS011;1866;48.374;10.766;2022-08-01T10:55:46;91.10;;;3.57;;
3700;SDS011;1866;48.374;10.766;2022-08-01T10:58:19;90.77;;;3.63;;
3700;SDS011;1866;48.374;10.766;2022-08-01T11:00:47;90.23;;;3.33;;
3700;SDS011;1866;48.374;10.766;2022-08-01T11:03:13;90.87;;;3.10;;
3700;SDS011;1866;48.374;10.766;2022-08-01T11:05:42;89.97;;;2.87;;
3700;SDS011;1866;48.374;10.766;2022-08-01T11:08:12;89.77;;;3.50;;
3700;SDS011;1866;48.374;10.766;2022-08-01T11:10:47;92.57;;;3.00;;
3700;SDS011;1866;48.374;10.766;2022-08-01T11:16:26;89.90;;;3.17;;
3700;SDS011;1866;48.374;10.766;2022-08-01T11:18:54;91.17;;;3.57;;
3700;SDS011;1866;48.374;10.766;2022-08-01T11:21:22;90.10;;;3.00;;
3700;SDS011;1866;48.374;10.766;2022-08-01T11:27:44;103.90;;;3.87;;
3700;SDS011;1866;48.374;10.766;2022-08-01T11:30:23;91.37;;;3.10;;
3700;SDS011;1866;48.374;10.766;2022-08-01T11:32:52;90.60;;;3.17;;
3700;SDS011;1866;48.374;10.766;2022-08-01T11:35:20;91.97;;;3.33;;
3700;SDS011;1866;48.374;10.766;2022-08-01T11:37:50;91.87;;;3.40;;
3700;SDS011;1866;48.374;10.766;2022-08-01T11:40:18;90.77;;;3.37;;
3700;SDS011;1866;48.374;10.766;2022-08-01T11:42:47;92.47;;;3.83;;
3700;SDS011;1866;48.374;10.766;2022-08-01T11:45:15;91.10;;;3.30;;
3700;SDS011;1866;48.374;10.766;2022-08-01T11:47:46;91.07;;;3.00;;
3700;SDS011;1866;48.374;10.766;2022-08-01T11:50:29;91.50;;;3.30;;
3700;SDS011;1866;48.374;10.766;2022-08-01T11:53:00;91.47;;;3.50;;
3700;SDS011;1866;48.374;10.766;2022-08-01T11:55:28;90.37;;;3.20;;
3700;SDS011;1866;48.374;10.766;2022-08-01T11:58:01;90.40;;;3.20;;
3700;SDS011;1866;48.374;10.766;2022-08-01T12:00:29;93.60;;;3.43;;
3700;SDS011;1866;48.374;10.766;2022-08-01T12:02:57;90.90;;;3.13;;
3700;SDS011;1866;48.374;10.766;2022-08-01T12:05:25;91.00;;;3.30;;
3700;SDS011;1866;48.374;10.766;2022-08-01T12:07:53;90.37;;;3.10;;
3700;SDS011;1866;48.374;10.766;2022-08-01T12:10:24;91.67;;;3.60;;
3700;SDS011;1866;48.374;10.766;2022-08-01T12:12:53;93.10;;;3.70;;
3700;SDS011;1866;48.374;10.766;2022-08-01T12:15:22;90.77;;;3.37;;
3700;SDS011;1866;48.374;10.766;2022-08-01T12:17:51;92.57;;;3.77;;
3700;SDS011;1866;48.374;10.766;2022-08-01T12:20:25;90.43;;;3.17;;
3700;SDS011;1866;48.374;10.766;2022-08-01T12:22:53;90.47;;;3.23;;
3700;SDS011;1866;48.374;10.766;2022-08-01T12:25:23;90.07;;;3.23;;
3700;SDS011;1866;48.374;10.766;2022-08-01T12:27:50;90.53;;;3.17;;
3700;SDS011;1866;48.374;10.766;2022-08-01T12:30:18;93.20;;;3.80;;
3700;SDS011;1866;48.374;10.766;2022-08-01T12:32:47;90.03;;;3.20;;
3700;SDS011;1866;48.374;10.766;2022-08-01T12:35:15;91.60;;;3.87;;
3700;SDS011;1866;48.374;10.766;2022-08-01T12:37:43;91.10;;;3.30;;
3700;SDS011;1866;48.374;10.766;2022-08-01T12:40:13;90.97;;;3.30;;
3700;SDS011;1866;48.374;10.766;2022-08-01T12:42:47;92.17;;;3.10;;
3700;SDS011;1866;48.374;10.766;2022-08-01T12:45:15;89.57;;;3.20;;
3700;SDS011;1866;48.374;10.766;2022-08-01T12:47:47;89.87;;;3.27;;
3700;SDS011;1866;48.374;10.766;2022-08-01T12:50:15;89.53;;;3.10;;
3700;SDS011;1866;48.374;10.766;2022-08-01T12:52:54;92.67;;;3.40;;
3700;SDS011;1866;48.374;10.766;2022-08-01T12:55:22;91.40;;;3.23;;
3700;SDS011;1866;48.374;10.766;2022-08-01T12:58:03;89.43;;;3.10;;
3700;SDS011;1866;48.374;10.766;2022-08-01T13:00:31;89.80;;;3.40;;
3700;SDS011;1866;48.374;10.766;2022-08-01T13:03:02;88.80;;;2.80;;
3700;SDS011;1866;48.374;10.766;2022-08-01T13:05:40;88.77;;;2.90;;
3700;SDS011;1866;48.374;10.766;2022-08-01T13:08:11;89.20;;;2.77;;
3700;SDS011;1866;48.374;10.766;2022-08-01T13:10:38;89.17;;;3.37;;
3700;SDS011;1866;48.374;10.766;2022-08-01T13:13:07;89.47;;;3.20;;
3700;SDS011;1866;48.374;10.766;2022-08-01T13:15:35;89.77;;;3.10;;
3700;SDS011;1866;48.374;10.766;2022-08-01T13:20:49;89.20;;;3.00;;
3700;SDS011;1866;48.374;10.766;2022-08-01T13:23:17;88.20;;;2.77;;
3700;SDS011;1866;48.374;10.766;2022-08-01T13:25:46;90.63;;;3.10;;
3700;SDS011;1866;48.374;10.766;2022-08-01T13:28:18;88.57;;;2.70;;
3700;SDS011;1866;48.374;10.766;2022-08-01T13:30:56;90.30;;;3.50;;
3700;SDS011;1866;48.374;10.766;2022-08-01T13:33:24;93.03;;;4.00;;
3700;SDS011;1866;48.374;10.766;2022-08-01T13:36:29;92.77;;;3.70;;
3700;SDS011;1866;48.374;10.766;2022-08-01T13:38:56;102.57;;;5.20;;
3700;SDS011;1866;48.374;10.766;2022-08-01T13:41:40;94.07;;;5.17;;
3700;SDS011;1866;48.374;10.766;2022-08-01T13:44:08;97.50;;;5.10;;
3700;SDS011;1866;48.374;10.766;2022-08-01T13:46:36;94.23;;;5.07;;
3700;SDS011;1866;48.374;10.766;2022-08-01T13:49:04;101.03;;;5.93;;
3700;SDS011;1866;48.374;10.766;2022-08-01T13:51:32;96.97;;;5.10;;
3700;SDS011;1866;48.374;10.766;2022-08-01T13:53:59;95.37;;;4.53;;
3700;SDS011;1866;48.374;10.766;2022-08-01T13:56:26;98.00;;;4.80;;
3700;SDS011;1866;48.374;10.766;2022-08-01T13:58:53;95.80;;;4.60;;
3700;SDS011;1866;48.374;10.766;2022-08-01T14:01:24;96.07;;;4.60;;
3700;SDS011;1866;48.374;10.766;2022-08-01T14:03:51;95.77;;;4.27;;
3700;SDS011;1866;48.374;10.766;2022-08-01T14:06:18;96.37;;;4.40;;
3700;SDS011;1866;48.374;10.766;2022-08-01T14:09:26;98.30;;;4.60;;
3700;SDS011;1866;48.374;10.766;2022-08-01T14:11:35;96.27;;;4.53;;
3700;SDS011;1866;48.374;10.766;2022-08-01T14:14:02;98.30;;;4.40;;
3700;SDS011;1866;48.374;10.766;2022-08-01T14:16:31;96.30;;;4.77;;
3700;SDS011;1866;48.374;10.766;2022-08-01T14:18:57;99.93;;;4.93;;
3700;SDS011;1866;48.374;10.766;2022-08-01T14:21:24;96.47;;;4.50;;
3700;SDS011;1866;48.374;10.766;2022-08-01T14:23:52;98.00;;;4.80;;
3700;SDS011;1866;48.374;10.766;2022-08-01T14:26:19;95.67;;;4.20;;
3700;SDS011;1866;48.374;10.766;2022-08-01T14:28:46;97.00;;;4.20;;
3700;SDS011;1866;48.374;10.766;2022-08-01T14:31:13;95.10;;;3.90;;
3700;SDS011;1866;48.374;10.766;2022-08-01T14:33:41;98.90;;;4.10;;
3700;SDS011;1866;48.374;10.766;2022-08-01T14:36:08;96.00;;;4.23;;
3700;SDS011;1866;48.374;10.766;2022-08-01T14:38:35;96.47;;;4.40;;
